Time;durP1;ratioP1;P1;durP2;ratioP2;P2;SDS_P1;SDS_P2;PMS_P1;PMS_P2;Temp;Humidity;BMP_temperature;BMP_pressure;BME280_temperature;BME280_humidity;BME280_pressure;Samples;Min_cycle;Max_cycle;Signal;HPM_P1;HPM_P2
2022/08/02 00:03:24;;;;;;;6.43;2.58;;;;;;;-147.53;100.00;57128.34;10314324;28;20154;-87
2022/08/02 00:08:25;;;;;;;9.77;2.50;;;;;;;-147.53;100.00;57128.34;10296917;28;20066;-88
2022/08/02 00:13:27;;;;;;;10.48;2.40;;;;;;;-147.53;100.00;57128.34;10297710;28;20050;-87
2022/08/02 00:18:29;;;;;;;7.15;2.67;;;;;;;-147.53;100.00;57128.34;10303558;28;20514;-88
2022/08/02 00:23:31;;;;;;;6.18;2.80;;;;;;;-147.53;100.00;57128.34;10292624;28;20050;-87
2022/08/02 00:28:52;;;;;;;;;;;;;;;-147.53;100.00;57128.34;10302387;28;20125;-87
2022/08/02 00:33:55;;;;;;;7.78;2.75;;;;;;;-147.53;100.00;57128.34;10285129;28;19925;-88
2022/08/02 00:39:17;;;;;;;12.30;3.15;;;;;;;-147.53;100.00;57128.34;10280025;28;20041;-88
2022/08/02 00:44:36;;;;;;;8.10;3.00;;;;;;;-147.53;100.00;57128.34;10299642;28;20042;-87
2022/08/02 00:49:37;;;;;;;5.28;2.78;;;;;;;-147.53;100.00;57128.34;10300375;28;20038;-88
2022/08/02 00:54:39;;;;;;;9.05;3.13;;;;;;;-147.53;100.00;57128.34;10289137;28;20052;-88
2022/08/02 00:59:41;;;;;;;7.93;2.22;;;;;;;-147.53;100.00;57128.34;10294041;28;20737;-87
2022/08/02 01:04:43;;;;;;;8.50;3.15;;;;;;;-147.53;100.00;57128.34;10262757;28;20521;-88
2022/08/02 01:09:45;;;;;;;8.00;2.97;;;;;;;-147.53;100.00;57128.34;10284080;28;20101;-88
2022/08/02 01:14:50;;;;;;;7.75;2.85;;;;;;;-147.53;100.00;57128.34;10299954;28;20065;-88
2022/08/02 01:20:18;;;;;;;9.07;3.20;;;;;;;-147.53;100.00;57128.34;10283860;28;20065;-88
2022/08/02 01:25:39;;;;;;;10.07;2.97;;;;;;;-147.53;100.00;57128.34;10303124;28;20062;-88
2022/08/02 01:30:43;;;;;;;8.40;2.85;;;;;;;-147.53;100.00;57128.34;10296916;28;20047;-88
2022/08/02 01:35:52;;;;;;;11.13;3.20;;;;;;;-147.53;100.00;57128.34;10306320;28;20054;-88
2022/08/02 01:40:57;;;;;;;7.23;2.97;;;;;;;-147.53;100.00;57128.34;10285729;28;20039;-88
2022/08/02 01:46:00;;;;;;;6.93;2.78;;;;;;;-147.53;100.00;57128.34;10295703;28;20591;-87
2022/08/02 01:51:04;;;;;;;9.88;2.83;;;;;;;-147.53;100.00;57128.34;10293720;28;20827;-87
2022/08/02 01:56:08;;;;;;;6.78;2.80;;;;;;;-147.53;100.00;57128.34;10307043;28;20050;-88
2022/08/02 02:01:11;;;;;;;4.97;2.70;;;;;;;-147.53;100.00;57128.34;10269043;28;20181;-88
2022/08/02 02:06:21;;;;;;;5.13;2.63;;;;;;;-147.53;100.00;57128.34;10291708;28;20043;-88
2022/08/02 02:11:23;;;;;;;6.93;3.10;;;;;;;-147.53;100.00;57128.34;10286344;28;20053;-87
2022/08/02 02:16:47;;;;;;;5.55;2.53;;;;;;;-147.53;100.00;57128.34;10299507;28;20057;-88
2022/08/02 02:21:50;;;;;;;6.57;2.40;;;;;;;-147.53;100.00;57128.34;10302692;28;20105;-87
2022/08/02 02:26:52;;;;;;;5.85;2.88;;;;;;;-147.53;100.00;57128.34;10294613;28;20517;-87
2022/08/02 02:31:58;;;;;;;5.32;2.33;;;;;;;-147.53;100.00;57128.34;10304730;28;20042;-88
2022/08/02 02:37:07;;;;;;;7.82;2.88;;;;;;;-147.53;100.00;57128.34;10310638;28;20101;-88
2022/08/02 02:42:14;;;;;;;6.85;2.15;;;;;;;-147.53;100.00;57128.34;10277815;28;20097;-87
2022/08/02 02:47:21;;;;;;;9.32;2.40;;;;;;;-147.53;100.00;57128.34;10286586;28;20129;-88
2022/08/02 02:52:42;;;;;;;6.90;2.70;;;;;;;-147.53;100.00;57128.34;10305071;28;20049;-88
2022/08/02 02:57:45;;;;;;;6.45;2.60;;;;;;;-147.53;100.00;57128.34;10288792;28;20655;-88
2022/08/02 03:02:47;;;;;;;6.35;2.50;;;;;;;-147.53;100.00;57128.34;10282850;28;20069;-87
2022/08/02 03:07:49;;;;;;;10.30;3.38;;;;;;;-147.53;100.00;57128.34;10279566;28;20588;-87
2022/08/02 03:12:51;;;;;;;5.97;2.42;;;;;;;-147.53;100.00;57128.34;10276267;28;20047;-88
2022/08/02 03:17:53;;;;;;;6.80;2.60;;;;;;;-147.53;100.00;57128.34;10306009;28;20038;-88
2022/08/02 03:22:54;;;;;;;6.55;2.75;;;;;;;-147.53;100.00;57128.34;10280154;28;20418;-88
2022/08/02 03:27:56;;;;;;;5.43;2.63;;;;;;;-147.53;67.21;98075.72;10281505;28;20120;-88
2022/08/02 03:32:58;;;;;;;7.78;3.58;;;;;;;8.29;76.65;97378.47;10278003;28;20054;-88
2022/08/02 03:38:04;;;;;;;8.52;3.35;;;;;;;8.29;76.55;97388.91;10263659;28;20134;-89
2022/08/02 03:43:07;;;;;;;8.18;3.63;;;;;;;8.30;76.97;97403.66;10298070;28;20105;-89
2022/08/02 03:48:11;;;;;;;10.70;4.07;;;;;;;8.31;77.02;97405.34;10301524;28;20127;-88
2022/08/02 03:53:34;;;;;;;10.18;4.25;;;;;;;8.28;77.04;97400.22;10291117;28;20034;-87
2022/08/02 03:58:36;;;;;;;8.27;3.95;;;;;;;8.28;77.11;97417.63;10299251;28;20042;-87
2022/08/02 04:03:39;;;;;;;9.93;3.90;;;;;;;8.31;77.19;97436.63;10267245;28;20058;-88
2022/08/02 04:08:45;;;;;;;12.93;4.68;;;;;;;8.29;77.50;97435.81;10287057;28;20565;-88
2022/08/02 04:13:48;;;;;;;12.75;4.57;;;;;;;8.25;77.55;97420.31;10297444;28;20085;-88
2022/08/02 04:18:54;;;;;;;9.48;4.50;;;;;;;8.22;77.78;97416.03;10267494;28;20043;-88
2022/08/02 04:23:56;;;;;;;13.10;5.28;;;;;;;8.20;77.86;97407.41;10287981;28;20049;-88
2022/08/02 04:28:59;;;;;;;15.43;4.47;;;;;;;8.21;78.01;97423.88;10279889;28;20038;-88
2022/08/02 04:34:07;;;;;;;14.52;5.63;;;;;;;8.30;78.18;97471.44;10302458;28;20057;-88
2022/08/02 04:39:18;;;;;;;14.18;5.20;;;;;;;8.39;78.24;97508.56;10263031;28;20050;-87
2022/08/02 04:44:20;;;;;;;10.70;5.07;;;;;;;8.45;78.38;97539.72;10287177;28;20046;-88
2022/08/02 04:49:23;;;;;;;18.17;5.60;;;;;;;8.53;78.42;97573.41;10276950;28;20054;-88
2022/08/02 04:54:30;;;;;;;10.00;5.20;;;;;;;8.59;78.56;97612.41;10295829;28;20542;-87
2022/08/02 04:59:33;;;;;;;9.75;4.80;;;;;;;8.68;78.92;97643.47;10305884;28;20039;-88
2022/08/02 05:04:35;;;;;;;10.20;5.05;;;;;;;8.78;78.93;97696.25;10281485;28;20395;-87
2022/08/02 05:09:40;;;;;;;16.45;5.65;;;;;;;-147.53;100.00;57128.34;10308155;28;20047;-87
2022/08/02 05:14:46;;;;;;;14.68;5.30;;;;;;;-147.53;100.00;57128.34;10267293;28;20053;-88
2022/08/02 05:19:48;;;;;;;10.20;4.93;;;;;;;-147.53;100.00;57128.34;10263040;28;20043;-87
2022/08/02 05:24:50;;;;;;;16.95;6.30;;;;;;;-147.53;100.00;57128.34;10285522;28;20081;-88
2022/08/02 05:29:53;;;;;;;9.93;5.35;;;;;;;-147.53;100.00;57128.34;10266400;28;20086;-87
2022/08/02 05:35:00;;;;;;;16.63;5.88;;;;;;;-147.53;100.00;57128.34;10289136;28;20066;-89
2022/08/02 05:40:03;;;;;;;14.18;5.47;;;;;;;-147.53;100.00;57128.34;10269884;28;20490;-86
2022/08/02 05:45:13;;;;;;;18.80;5.43;;;;;;;-147.53;100.00;57128.34;10287424;28;20565;-87
2022/08/02 05:50:15;;;;;;;11.80;4.57;;;;;;;-147.53;100.00;57128.34;10286258;28;20043;-88
2022/08/02 05:55:26;;;;;;;16.58;5.28;;;;;;;-147.53;100.00;57128.34;10277973;28;20053;-88
2022/08/02 06:00:39;;;;;;;10.80;4.60;;;;;;;-147.53;100.00;57128.34;10279259;28;20524;-88
2022/08/02 06:06:13;;;;;;;16.55;5.03;;;;;;;-147.53;100.00;57128.34;10284253;28;20058;-88
2022/08/02 06:11:33;;;;;;;14.82;4.75;;;;;;;-147.53;100.00;57128.34;10287691;28;20049;-88
2022/08/02 06:16:44;;;;;;;;;;;;;;;-147.53;100.00;57128.34;10268999;28;20060;-89
2022/08/02 06:22:13;;;;;;;17.13;4.88;;;;;;;-147.53;100.00;57128.34;10244220;28;20039;-89
2022/08/02 06:28:01;;;;;;;;;;;;;;;;;;;;;
2022/08/02 06:33:27;;;;;;;19.70;4.05;;;;;;;-147.53;100.00;57128.34;10258729;28;20050;-85
2022/08/02 06:38:42;;;;;;;22.73;4.30;;;;;;;-147.53;100.00;57128.34;10285825;28;20053;-85
2022/08/02 06:44:02;;;;;;;12.95;3.28;;;;;;;-147.53;100.00;57128.34;10297824;28;20549;-85
2022/08/02 06:49:24;;;;;;;10.60;3.13;;;;;;;-147.53;100.00;57128.34;10285315;28;20049;-85
2022/08/02 06:54:45;;;;;;;11.73;3.10;;;;;;;-147.53;100.00;57128.34;10291841;28;20061;-85
2022/08/02 06:59:47;;;;;;;14.60;3.55;;;;;;;-147.53;100.00;57128.34;10304692;28;20039;-84
2022/08/02 07:04:49;;;;;;;14.13;3.53;;;;;;;-147.53;100.00;57128.34;10280945;28;20121;-84
2022/08/02 07:09:51;;;;;;;15.02;3.28;;;;;;;-147.53;100.00;57128.34;10299950;28;20046;-83
2022/08/02 07:15:05;;;;;;;13.35;3.15;;;;;;;-147.53;100.00;57128.34;10285787;28;21803;-85
2022/08/02 07:20:08;;;;;;;12.65;3.63;;;;;;;-147.53;100.00;57128.34;10287122;28;20034;-85
2022/08/02 07:25:10;;;;;;;12.52;2.88;;;;;;;-147.53;100.00;57128.34;10272643;28;20070;-84
2022/08/02 07:30:12;;;;;;;13.02;3.15;;;;;;;-147.53;100.00;57128.34;10292286;28;20699;-84
2022/08/02 07:35:13;;;;;;;8.88;3.28;;;;;;;-147.53;100.00;57128.34;10270731;28;20054;-84
2022/08/02 07:40:20;;;;;;;13.90;3.15;;;;;;;-147.53;100.00;57128.34;10309059;28;20703;-83
2022/08/02 07:45:23;;;;;;;10.93;2.67;;;;;;;-147.53;100.00;57128.34;10298196;28;20054;-84
2022/08/02 07:50:27;;;;;;;8.40;2.13;;;;;;;-147.53;100.00;57128.34;10312303;28;20053;-84
2022/08/02 07:55:28;;;;;;;9.00;2.20;;;;;;;-147.53;100.00;57128.34;10306515;28;20490;-85
2022/08/02 08:00:42;;;;;;;10.23;2.20;;;;;;;-147.53;100.00;57128.34;10285667;28;20034;-85
2022/08/02 08:05:44;;;;;;;15.70;2.60;;;;;;;-147.53;100.00;57128.34;10310799;28;20050;-83
2022/08/02 08:10:46;;;;;;;9.50;2.30;;;;;;;-147.53;100.00;57128.34;10315576;28;20034;-85
2022/08/02 08:15:48;;;;;;;9.88;2.05;;;;;;;-147.53;100.00;57128.34;10314061;28;20462;-84
2022/08/02 08:20:53;;;;;;;7.35;2.00;;;;;;;-147.53;100.00;57128.34;10289412;28;20046;-82
2022/08/02 08:25:55;;;;;;;9.45;2.00;;;;;;;-147.53;100.00;57128.34;10324070;28;20073;-88
2022/08/02 08:30:58;;;;;;;9.63;1.70;;;;;;;-147.53;100.00;57128.34;10314471;28;20053;-82
2022/08/02 08:36:00;;;;;;;8.68;1.92;;;;;;;-147.53;100.00;57128.34;10314895;28;20062;-82
2022/08/02 08:41:03;;;;;;;4.85;1.40;;;;;;;-147.53;100.00;57128.34;10318910;28;20131;-81
2022/08/02 08:46:23;;;;;;;12.00;1.95;;;;;;;-147.53;100.00;57128.34;10315037;28;20048;-81
2022/08/02 08:51:31;;;;;;;11.07;1.98;;;;;;;-147.53;100.00;57128.34;10320828;28;20053;-81
2022/08/02 08:56:34;;;;;;;6.45;1.40;;;;;;;-147.53;100.00;57128.34;10297924;28;20074;-82
2022/08/02 09:01:36;;;;;;;7.63;1.50;;;;;;;-147.53;100.00;57128.34;10320837;28;20122;-81
2022/08/02 09:06:51;;;;;;;8.60;1.52;;;;;;;-147.53;100.00;57128.34;10326219;28;20096;-82
2022/08/02 09:11:53;;;;;;;11.15;1.67;;;;;;;-147.53;100.00;57128.34;10319331;28;20046;-83
2022/08/02 09:17:06;;;;;;;5.20;1.20;;;;;;;-147.53;100.00;57128.34;10326054;28;20042;-82
2022/08/02 09:22:10;;;;;;;6.00;1.20;;;;;;;-147.53;100.00;57128.34;10312776;28;20490;-82
2022/08/02 09:27:18;;;;;;;7.05;1.35;;;;;;;-147.53;100.00;57128.34;10302594;28;20482;-81
2022/08/02 09:32:19;;;;;;;3.60;1.33;;;;;;;-147.53;100.00;57128.34;10321379;28;20043;-81
2022/08/02 09:37:26;;;;;;;4.30;1.20;;;;;;;-147.53;100.00;57128.34;10306538;28;20070;-82
2022/08/02 09:42:28;;;;;;;3.75;1.20;;;;;;;-147.53;100.00;57128.34;10315207;28;20162;-82
2022/08/02 09:47:32;;;;;;;4.50;1.20;;;;;;;-147.53;100.00;57128.34;10317086;28;20043;-83
2022/08/02 09:52:38;;;;;;;5.60;1.10;;;;;;;-147.53;100.00;57128.34;10319589;28;20053;-82
2022/08/02 09:57:44;;;;;;;3.05;1.00;;;;;;;-147.53;100.00;57128.34;10317032;28;20552;-82
2022/08/02 10:03:09;;;;;;;3.75;1.05;;;;;;;-147.53;100.00;57128.34;10295796;28;20062;-87
2022/08/02 10:08:21;;;;;;;6.07;1.50;;;;;;;-147.53;100.00;57128.34;10278037;28;20095;-85
2022/08/02 10:13:23;;;;;;;7.63;1.42;;;;;;;-147.53;100.00;57128.34;10309526;28;20042;-84
2022/08/02 10:18:25;;;;;;;3.05;1.10;;;;;;;-147.53;100.00;57128.34;10309255;28;20042;-87
2022/08/02 10:23:44;;;;;;;3.88;1.30;;;;;;;-147.53;100.00;57128.34;10289387;28;20050;-86
2022/08/02 10:28:48;;;;;;;5.10;1.17;;;;;;;-147.53;100.00;57128.34;10264026;28;20043;-85
2022/08/02 10:33:52;;;;;;;11.40;1.40;;;;;;;-147.53;100.00;57128.34;10278323;28;21585;-85
2022/08/02 10:39:01;;;;;;;5.95;1.63;;;;;;;-147.53;100.00;57128.34;10285143;28;20108;-85
2022/08/02 10:51:05;;;;;;;8.45;1.17;;;;;;;-147.53;100.00;57128.34;10173494;28;20710;-85
2022/08/02 10:57:19;;;;;;;6.07;1.30;;;;;;;-147.53;100.00;57128.34;10265532;28;20049;-85
2022/08/02 11:02:45;;;;;;;3.78;1.20;;;;;;;-147.53;100.00;57128.34;10272383;28;20046;-84
2022/08/02 11:42:35;;;;;;;5.75;1.30;;;;;;;-147.53;100.00;57128.34;10039925;29;20045;-85
2022/08/02 11:55:05;;;;;;;3.00;1.30;;;;;;;-147.53;100.00;57128.34;10550660;23;20057;-89
2022/08/02 12:20:57;;;;;;;4.60;1.98;;;;;;;-147.53;100.00;57128.34;10268556;28;20050;-89
2022/08/02 12:26:08;;;;;;;4.15;1.40;;;;;;;-147.53;100.00;57128.34;10296327;28;20101;-81
2022/08/02 12:31:18;;;;;;;5.05;1.83;;;;;;;-147.53;100.00;57128.34;10295024;28;20052;-88
2022/08/02 12:36:26;;;;;;;7.00;1.50;;;;;;;-147.53;100.00;57128.34;10297069;28;20089;-88
2022/08/02 12:41:28;;;;;;;4.10;1.70;;;;;;;-147.53;100.00;57128.34;10310441;28;20138;-89
2022/08/02 12:46:32;;;;;;;4.53;1.50;;;;;;;-147.53;100.00;57128.34;10307300;28;20453;-88
2022/08/02 12:51:46;;;;;;;9.60;1.63;;;;;;;-147.53;100.00;57128.34;10318740;28;20042;-89
2022/08/02 12:57:13;;;;;;;2.88;1.50;;;;;;;-147.53;100.00;57128.34;10306307;28;20062;-88
2022/08/02 13:02:15;;;;;;;5.80;1.83;;;;;;;-147.53;100.00;57128.34;10315506;28;20058;-87
2022/08/02 13:07:18;;;;;;;4.82;1.67;;;;;;;-147.53;100.00;57128.34;10294986;28;20054;-87
2022/08/02 13:12:20;;;;;;;5.40;1.65;;;;;;;-147.53;100.00;57128.34;10315309;28;20055;-88
2022/08/02 13:17:22;;;;;;;4.20;1.85;;;;;;;-147.53;100.00;57128.34;10313689;28;20156;-88
2022/08/02 13:22:24;;;;;;;4.13;1.60;;;;;;;-147.53;100.00;57128.34;10308530;28;20519;-88
2022/08/02 13:27:30;;;;;;;7.20;1.70;;;;;;;-147.53;100.00;57128.34;10302857;28;20133;-87
2022/08/02 13:32:31;;;;;;;7.07;1.60;;;;;;;-147.53;100.00;57128.34;10299598;28;20630;-89
2022/08/02 13:37:33;;;;;;;9.52;1.60;;;;;;;-147.53;100.00;57128.34;10305838;28;20080;-88
2022/08/02 13:42:41;;;;;;;3.80;1.50;;;;;;;-147.53;100.00;57128.34;10301679;28;20077;-88
2022/08/02 13:47:43;;;;;;;4.55;1.75;;;;;;;-147.53;100.00;57128.34;10297902;28;20217;-87
2022/08/02 13:53:05;;;;;;;9.38;2.10;;;;;;;-147.53;100.00;57128.34;10292129;28;20138;-87
2022/08/02 13:58:07;;;;;;;7.70;1.73;;;;;;;-147.53;100.00;57128.34;10293681;28;20117;-89
2022/08/02 14:03:09;;;;;;;4.30;1.60;;;;;;;-147.53;100.00;57128.34;10301621;28;20894;-87
2022/08/02 14:08:13;;;;;;;3.30;1.60;;;;;;;-147.53;100.00;57128.34;10298054;28;20421;-87
2022/08/02 14:13:18;;;;;;;4.43;1.70;;;;;;;-147.53;100.00;57128.34;10291553;28;20057;-86
2022/08/02 14:18:19;;;;;;;5.15;1.90;;;;;;;-147.53;100.00;57128.34;10295797;28;20154;-86
2022/08/02 14:23:21;;;;;;;4.07;1.95;;;;;;;-147.53;100.00;57128.34;10306196;28;20050;-89
2022/08/02 14:28:43;;;;;;;5.53;2.00;;;;;;;-147.53;100.00;57128.34;10304683;28;20070;-86
2022/08/02 14:33:45;;;;;;;5.13;1.80;;;;;;;-147.53;100.00;57128.34;10287374;28;20499;-88
2022/08/02 14:38:46;;;;;;;4.30;1.85;;;;;;;-147.53;100.00;57128.34;10307103;28;20050;-86
2022/08/02 14:44:04;;;;;;;4.55;2.10;;;;;;;-147.53;100.00;57128.34;10307060;28;20100;-84
2022/08/02 14:49:09;;;;;;;7.55;1.80;;;;;;;-147.53;100.00;57128.34;10304531;28;20061;-86
2022/08/02 14:54:14;;;;;;;5.40;1.98;;;;;;;-147.53;100.00;57128.34;10294165;28;20125;-85
2022/08/02 14:59:18;;;;;;;7.43;1.65;;;;;;;-147.53;100.00;57128.34;10308204;28;20126;-87
2022/08/02 15:04:20;;;;;;;5.22;1.80;;;;;;;-147.53;100.00;57128.34;10306966;28;20046;-87
2022/08/02 15:09:22;;;;;;;4.65;1.70;;;;;;;-147.53;100.00;57128.34;10306761;28;20085;-89
2022/08/02 15:14:24;;;;;;;3.80;1.80;;;;;;;-147.53;100.00;57128.34;10308183;28;20453;-87
2022/08/02 15:19:27;;;;;;;7.18;1.70;;;;;;;-147.53;100.00;57128.34;10304878;28;20046;-87
2022/08/02 15:24:49;;;;;;;3.88;1.73;;;;;;;-147.53;100.00;57128.34;10303855;28;20042;-90
2022/08/02 15:29:58;;;;;;;4.72;1.60;;;;;;;-147.53;100.00;57128.34;10312235;28;20049;-87
2022/08/02 15:35:00;;;;;;;4.45;2.30;;;;;;;-147.53;100.00;57128.34;10308719;28;20057;-89
2022/08/02 15:40:02;;;;;;;5.90;1.80;;;;;;;-147.53;100.00;57128.34;10304132;28;20104;-89
2022/08/02 15:45:04;;;;;;;4.90;1.60;;;;;;;-147.53;100.00;57128.34;10293949;28;20051;-87
2022/08/02 15:50:06;;;;;;;6.38;1.70;;;;;;;-147.53;100.00;57128.34;10307967;28;20038;-86
2022/08/02 15:55:11;;;;;;;4.72;1.88;;;;;;;-147.53;100.00;57128.34;10311603;28;20067;-87
2022/08/02 16:00:14;;;;;;;2.75;1.40;;;;;;;-147.53;100.00;57128.34;10306481;28;20085;-89
2022/08/02 16:05:20;;;;;;;3.05;1.42;;;;;;;-147.53;100.00;57128.34;10281714;28;20166;-88
2022/08/02 16:10:25;;;;;;;4.47;1.77;;;;;;;-147.53;100.00;57128.34;10308205;28;20054;-86
2022/08/02 16:15:27;;;;;;;6.97;1.52;;;;;;;-147.53;100.00;57128.34;10286716;28;20051;-91
2022/08/02 16:20:31;;;;;;;3.83;1.60;;;;;;;-147.53;100.00;57128.34;10259613;28;20137;-90
2022/08/02 16:25:33;;;;;;;4.20;1.55;;;;;;;-147.53;100.00;57128.34;10310864;28;20484;-89
2022/08/02 16:30:41;;;;;;;;;;;;;;;-147.53;100.00;57128.34;10307907;28;20150;-88
2022/08/02 16:36:04;;;;;;;4.38;1.67;;;;;;;-147.53;100.00;57128.34;10310524;28;20582;-90
2022/08/02 16:41:06;;;;;;;4.85;1.52;;;;;;;-147.53;100.00;57128.34;10302055;28;20039;-87
2022/08/02 16:46:08;;;;;;;9.00;1.70;;;;;;;-147.53;100.00;57128.34;10304659;28;20153;-90
2022/08/02 16:51:11;;;;;;;6.53;1.80;;;;;;;-147.53;100.00;57128.34;10312892;28;20497;-85
2022/08/02 16:56:14;;;;;;;3.55;1.52;;;;;;;-147.53;100.00;57128.34;10322492;28;20064;-84
2022/08/02 17:01:16;;;;;;;3.38;1.58;;;;;;;-147.53;100.00;57128.34;10304062;28;20118;-88
2022/08/02 17:06:31;;;;;;;2.83;1.40;;;;;;;-147.53;100.00;57128.34;10307604;28;20051;-89
2022/08/02 17:11:36;;;;;;;4.50;1.45;;;;;;;-147.53;100.00;57128.34;10307958;28;20062;-89
2022/08/02 17:16:48;;;;;;;9.45;1.50;;;;;;;-147.53;100.00;57128.34;10308387;28;20553;-89
2022/08/02 17:21:58;;;;;;;5.13;1.63;;;;;;;-147.53;100.00;57128.34;10313408;28;20619;-88
2022/08/02 17:27:03;;;;;;;6.03;1.45;;;;;;;-147.53;100.00;57128.34;10312261;28;20134;-88
2022/08/02 17:32:06;;;;;;;4.65;1.80;;;;;;;-147.53;100.00;57128.34;10297959;28;20042;-87
2022/08/02 17:37:12;;;;;;;4.07;1.50;;;;;;;-147.53;100.00;57128.34;10311208;28;20056;-87
2022/08/02 17:42:14;;;;;;;2.97;1.45;;;;;;;-147.53;100.00;57128.34;10304551;28;20232;-87
2022/08/02 17:47:41;;;;;;;3.55;1.60;;;;;;;-147.53;100.00;57128.34;10295349;28;20105;-87
2022/08/02 17:52:50;;;;;;;3.60;1.50;;;;;;;-147.53;100.00;57128.34;10301855;28;20050;-88
2022/08/02 17:58:05;;;;;;;6.53;1.52;;;;;;;-147.53;100.00;57128.34;10295096;28;20054;-88
2022/08/02 18:03:15;;;;;;;5.85;1.63;;;;;;;-147.53;100.00;57128.34;10273838;28;20054;-88
2022/08/02 18:08:23;;;;;;;2.13;1.48;;;;;;;-147.53;100.00;57128.34;10289307;28;20060;-88
2022/08/02 18:13:34;;;;;;;3.80;1.60;;;;;;;-147.53;100.00;57128.34;10282741;28;20039;-88
2022/08/02 18:18:39;;;;;;;3.42;1.50;;;;;;;-147.53;100.00;57128.34;10281044;28;20134;-87
2022/08/02 18:23:49;;;;;;;;;;;;;;;-147.53;100.00;57128.34;10268972;28;20070;-85
2022/08/02 18:35:20;;;;;;;3.13;1.60;;;;;;;-147.53;100.00;57128.34;10467157;23;20428;-86
2022/08/02 18:40:30;;;;;;;5.38;1.90;;;;;;;-147.53;100.00;57128.34;10345312;28;20043;-84
2022/08/02 18:45:32;;;;;;;4.00;1.63;;;;;;;-147.53;100.00;57128.34;10327942;28;20508;-84
2022/08/02 18:50:53;;;;;;;3.92;1.85;;;;;;;-147.53;100.00;57128.34;10345724;28;20554;-81
2022/08/02 18:55:56;;;;;;;11.98;2.00;;;;;;;-147.53;100.00;57128.34;10315337;28;20102;-85
2022/08/02 19:01:18;;;;;;;6.38;2.45;;;;;;;-147.53;100.00;57128.34;10312083;28;20066;-85
2022/08/02 19:12:51;;;;;;;4.05;2.20;;;;;;;-147.53;100.00;57128.34;10302814;28;20062;-86
2022/08/02 19:17:56;;;;;;;9.02;2.20;;;;;;;-147.53;100.00;57128.34;10334763;28;20051;-85
2022/08/02 19:22:58;;;;;;;4.03;2.22;;;;;;;-147.53;100.00;57128.34;10333801;28;20037;-84
2022/08/02 19:28:02;;;;;;;5.90;2.30;;;;;;;-147.53;100.00;57128.34;10320083;28;20058;-83
2022/08/02 19:33:04;;;;;;;5.05;2.30;;;;;;;-147.53;100.00;57128.34;10297227;28;20038;-83
2022/08/02 19:38:10;;;;;;;6.93;2.55;;;;;;;-147.53;100.00;57128.34;10315263;28;20054;-84
2022/08/02 19:43:12;;;;;;;4.75;2.35;;;;;;;-147.53;100.00;57128.34;10310012;28;20050;-84
2022/08/02 19:48:34;;;;;;;5.88;2.40;;;;;;;-147.53;100.00;57128.34;10327372;28;20054;-85
2022/08/02 19:53:35;;;;;;;6.13;2.75;;;;;;;-147.53;100.00;57128.34;10332526;28;20058;-84
2022/08/02 19:58:49;;;;;;;8.95;2.50;;;;;;;-147.53;100.00;57128.34;10339227;28;20046;-84
2022/08/02 20:03:52;;;;;;;6.18;2.25;;;;;;;-147.53;100.00;57128.34;10328405;28;20034;-85
2022/08/02 20:08:54;;;;;;;7.18;2.65;;;;;;;-147.53;100.00;57128.34;10330122;28;20050;-85
2022/08/02 20:13:59;;;;;;;6.53;2.28;;;;;;;-147.53;100.00;57128.34;10332307;28;20129;-84
2022/08/02 20:19:04;;;;;;;9.90;2.88;;;;;;;-147.53;100.00;57128.34;10330566;28;20580;-84
2022/08/02 20:24:10;;;;;;;11.05;2.47;;;;;;;-147.53;100.00;57128.34;10327750;28;20054;-85
2022/08/02 20:29:12;;;;;;;9.35;2.35;;;;;;;-147.53;100.00;57128.34;10324014;28;20058;-83
2022/08/02 20:34:14;;;;;;;12.82;2.85;;;;;;;-147.53;100.00;57128.34;10315929;28;20046;-84
2022/08/02 20:39:19;;;;;;;11.50;2.47;;;;;;;-147.53;100.00;57128.34;10332513;28;20065;-84
2022/08/02 20:44:21;;;;;;;9.77;2.45;;;;;;;-147.53;100.00;57128.34;10327582;28;20069;-84
2022/08/02 20:49:31;;;;;;;3.50;2.10;;;;;;;-147.53;100.00;57128.34;10325660;28;20088;-84
2022/08/02 20:54:42;;;;;;;7.57;2.10;;;;;;;-147.53;100.00;57128.34;10343260;28;20058;-84
2022/08/02 20:59:46;;;;;;;3.67;2.03;;;;;;;-147.53;100.00;57128.34;10348522;28;20600;-84
2022/08/02 21:04:52;;;;;;;6.05;1.98;;;;;;;-147.53;100.00;57128.34;10353840;28;20057;-85
2022/08/02 21:09:55;;;;;;;5.65;2.05;;;;;;;-147.53;100.00;57128.34;10334880;28;20410;-84
2022/08/02 21:14:57;;;;;;;5.00;2.15;;;;;;;-147.53;100.00;57128.34;10343301;28;20078;-84
2022/08/02 21:20:00;;;;;;;5.20;2.10;;;;;;;-147.53;100.00;57128.34;10346876;28;20049;-84
2022/08/02 21:25:02;;;;;;;3.72;1.90;;;;;;;-147.53;100.00;57128.34;10328521;28;20117;-84
2022/08/02 21:30:10;;;;;;;4.97;2.35;;;;;;;-147.53;100.00;57128.34;10345111;28;20058;-84
2022/08/02 21:35:11;;;;;;;14.50;3.03;;;;;;;-147.53;100.00;57128.34;10308687;28;20087;-84
2022/08/02 21:40:13;;;;;;;8.85;3.50;;;;;;;-147.53;100.00;57128.34;10315760;28;20062;-84
2022/08/02 21:45:15;;;;;;;5.50;2.58;;;;;;;-147.53;100.00;57128.34;10305613;28;20613;-84
2022/08/02 21:50:20;;;;;;;6.13;2.50;;;;;;;-147.53;100.00;57128.34;10339992;28;20434;-84
2022/08/02 21:55:22;;;;;;;5.10;2.60;;;;;;;-147.53;100.00;57128.34;10335951;28;20601;-84
2022/08/02 22:00:44;;;;;;;7.40;2.70;;;;;;;-147.53;100.00;57128.34;10337322;28;20110;-84
2022/08/02 22:05:45;;;;;;;4.05;2.28;;;;;;;-147.53;100.00;57128.34;10312168;28;20429;-84
2022/08/02 22:11:00;;;;;;;5.22;2.53;;;;;;;-147.53;100.00;57128.34;10338718;28;20054;-84
2022/08/02 22:16:04;;;;;;;5.40;2.45;;;;;;;-147.53;100.00;57128.34;10310487;28;20054;-83
2022/08/02 22:21:06;;;;;;;3.72;2.28;;;;;;;-147.53;100.00;57128.34;10311339;28;20494;-84
2022/08/02 22:26:15;;;;;;;7.80;2.43;;;;;;;-147.53;100.00;57128.34;10343088;28;20138;-85
2022/08/02 22:31:20;;;;;;;5.47;2.30;;;;;;;-147.53;100.00;57128.34;10321556;28;20398;-84
2022/08/02 22:36:42;;;;;;;5.72;2.88;;;;;;;-147.53;100.00;57128.34;10335829;28;20046;-84
2022/08/02 22:41:44;;;;;;;4.30;2.33;;;;;;;-147.53;100.00;57128.34;10339213;28;20524;-84
2022/08/02 22:47:06;;;;;;;4.78;2.67;;;;;;;-147.53;100.00;57128.34;10338916;28;20124;-85
2022/08/02 22:52:16;;;;;;;4.90;2.38;;;;;;;-147.53;100.00;57128.34;10332942;28;20279;-84
2022/08/02 22:57:20;;;;;;;4.13;2.55;;;;;;;-147.53;100.00;57128.34;10327317;28;20137;-85
2022/08/02 23:02:31;;;;;;;6.68;2.50;;;;;;;-147.53;100.00;57128.34;10335884;28;20038;-84
2022/08/02 23:07:33;;;;;;;6.22;2.53;;;;;;;-147.53;100.00;57128.34;10309256;28;20058;-84
2022/08/02 23:12:57;;;;;;;4.07;2.10;;;;;;;-147.53;100.00;57128.34;10244775;28;20047;-85
2022/08/02 23:23:23;;;;;;;5.18;2.50;;;;;;;-147.53;100.00;57128.34;10247458;28;20449;-84
2022/08/02 23:28:25;;;;;;;4.93;2.40;;;;;;;-147.53;100.00;57128.34;10271849;28;20565;-85
2022/08/02 23:33:26;;;;;;;5.70;2.55;;;;;;;-147.53;100.00;57128.34;10337595;28;20045;-84
2022/08/02 23:38:28;;;;;;;5.85;2.47;;;;;;;-147.53;100.00;57128.34;10331913;28;20073;-84
2022/08/02 23:43:30;;;;;;;5.35;2.20;;;;;;;-147.53;100.00;57128.34;10321158;28;20120;-84
2022/08/02 23:48:31;;;;;;;8.38;2.22;;;;;;;-147.53;100.00;57128.34;10340990;28;20050;-84
2022/08/02 23:53:33;;;;;;;7.18;2.47;;;;;;;-147.53;100.00;57128.34;10339117;28;20056;-84
2022/08/02 23:58:39;;;;;;;5.60;2.15;;;;;;;-147.53;100.00;57128.34;10333819;28;20053;-84
